Chichinales, Argentina
Current Conditions -  °F | °C
As of 6:00 PM on Wednesday 22 Oct 2014 (Local Time) from SAZN Reporting Station
Clear Clear  
Wind Chill: 82°   Ceiling: Unl
Heat Index: 82°   Visibility: 6mi
Dew Point: 43°   Wind: 5mph
Humidity: 25%   Direction: 200°SSW
Pressure: 29.94"   Gusts: NA
Location:  39.01°S, 66.9°W
Report Text: SAZN 222100Z 20004KT CAVOK 28/06 Q1014
Loading
Personal Weather Stations






























Interactive Weather Map
Tropical Storm Tracking
New forecast layout! Learn more

10-Day Weather Forecast

Advertisements
Track Severe Weather on mobile